sensor_id;sensor_type;location;lat;lon;timestamp;pressure;altitude;pressure_sealevel;temperature;humidity
59487;BME280;45298;54.918;73.504;2023-04-06T00:01:22;100117.97;;;0.76;69.06
59487;BME280;45298;54.918;73.504;2023-04-06T00:03:50;100101.63;;;0.66;69.13
59487;BME280;45298;54.918;73.504;2023-04-06T00:06:19;100086.25;;;0.52;69.13
59487;BME280;45298;54.918;73.504;2023-04-06T00:08:48;100101.69;;;0.63;69.09
59487;BME280;45298;54.918;73.504;2023-04-06T00:11:18;100017.56;;;0.08;69.00
59487;BME280;45298;54.918;73.504;2023-04-06T00:13:46;100101.91;;;0.52;69.21
59487;BME280;45298;54.918;73.504;2023-04-06T00:16:15;100085.56;;;0.42;69.24
59487;BME280;45298;54.918;73.504;2023-04-06T00:18:44;100082.25;;;0.34;69.75
59487;BME280;45298;54.918;73.504;2023-04-06T00:21:14;100117.56;;;0.52;69.66
59487;BME280;45298;54.918;73.504;2023-04-06T00:23:43;100083.09;;;0.36;69.72
59487;BME280;45298;54.918;73.504;2023-04-06T00:26:12;100109.72;;;0.52;69.93
59487;BME280;45298;54.918;73.504;2023-04-06T00:28:45;100109.78;;;0.51;69.90
59487;BME280;45298;54.918;73.504;2023-04-06T00:31:14;100090.91;;;0.36;69.70
59487;BME280;45298;54.918;73.504;2023-04-06T00:33:43;100080.50;;;0.35;70.19
59487;BME280;45298;54.918;73.504;2023-04-06T00:36:12;100097.56;;;0.51;70.26
59487;BME280;45298;54.918;73.504;2023-04-06T00:38:41;100083.00;;;0.41;70.53
59487;BME280;45298;54.918;73.504;2023-04-06T00:41:10;100067.44;;;0.36;70.39
59487;BME280;45298;54.918;73.504;2023-04-06T00:43:39;100087.97;;;0.53;70.53
59487;BME280;45298;54.918;73.504;2023-04-06T00:46:08;100063.00;;;0.40;70.34
59487;BME280;45298;54.918;73.504;2023-04-06T00:48:38;100070.72;;;0.46;70.24
59487;BME280;45298;54.918;73.504;2023-04-06T00:51:09;100074.91;;;0.55;70.49
59487;BME280;45298;54.918;73.504;2023-04-06T00:53:38;100075.78;;;0.54;70.68
59487;BME280;45298;54.918;73.504;2023-04-06T00:56:10;99988.94;;;0.05;70.88
59487;BME280;45298;54.918;73.504;2023-04-06T00:58:51;100082.50;;;0.66;70.96
59487;BME280;45298;54.918;73.504;2023-04-06T01:01:20;100048.84;;;0.52;70.99
59487;BME280;45298;54.918;73.504;2023-04-06T01:03:52;100070.19;;;0.72;70.85
59487;BME280;45298;54.918;73.504;2023-04-06T01:06:22;100063.97;;;0.78;70.76
59487;BME280;45298;54.918;73.504;2023-04-06T01:09:00;100052.75;;;0.73;70.77
59487;BME280;45298;54.918;73.504;2023-04-06T01:11:29;100028.53;;;0.68;70.76
59487;BME280;45298;54.918;73.504;2023-04-06T01:14:02;100061.84;;;0.96;70.67
59487;BME280;45298;54.918;73.504;2023-04-06T01:16:46;100069.56;;;1.00;70.64
59487;BME280;45298;54.918;73.504;2023-04-06T01:19:19;99972.28;;;0.53;70.38
59487;BME280;45298;54.918;73.504;2023-04-06T01:21:52;100008.97;;;0.86;70.51
59487;BME280;45298;54.918;73.504;2023-04-06T01:24:44;100026.94;;;1.00;70.55
59487;BME280;45298;54.918;73.504;2023-04-06T01:27:27;100020.81;;;1.01;70.81
59487;BME280;45298;54.918;73.504;2023-04-06T01:30:18;100041.34;;;1.16;70.68
59487;BME280;45298;54.918;73.504;2023-04-06T01:33:09;100029.22;;;1.14;70.62
59487;BME280;45298;54.918;73.504;2023-04-06T01:35:56;100027.34;;;1.20;70.63
59487;BME280;45298;54.918;73.504;2023-04-06T01:38:26;100025.47;;;1.26;70.69
59487;BME280;45298;54.918;73.504;2023-04-06T01:40:55;100051.06;;;1.47;70.83
59487;BME280;45298;54.918;73.504;2023-04-06T01:43:26;100019.81;;;1.44;70.53
59487;BME280;45298;54.918;73.504;2023-04-06T01:46:04;100031.59;;;1.61;70.40
59487;BME280;45298;54.918;73.504;2023-04-06T01:48:36;100024.56;;;1.63;70.49
59487;BME280;45298;54.918;73.504;2023-04-06T01:51:16;100036.41;;;1.76;70.21
59487;BME280;45298;54.918;73.504;2023-04-06T01:53:55;100032.75;;;1.84;70.66
59487;BME280;45298;54.918;73.504;2023-04-06T01:56:36;100016.09;;;1.86;70.23
59487;BME280;45298;54.918;73.504;2023-04-06T01:59:19;100021.78;;;2.02;69.58
59487;BME280;45298;54.918;73.504;2023-04-06T02:01:49;100051.72;;;3.69;66.81
59487;BME280;45298;54.918;73.504;2023-04-06T02:04:18;100009.91;;;5.08;63.38
59487;BME280;45298;54.918;73.504;2023-04-06T02:06:49;99991.38;;;6.16;59.79
59487;BME280;45298;54.918;73.504;2023-04-06T02:09:22;100013.16;;;7.35;56.62
59487;BME280;45298;54.918;73.504;2023-04-06T02:11:51;100028.88;;;8.24;54.43
59487;BME280;45298;54.918;73.504;2023-04-06T02:14:20;100031.66;;;8.88;52.70
59487;BME280;45298;54.918;73.504;2023-04-06T02:16:52;100020.34;;;9.49;51.52
59487;BME280;45298;54.918;73.504;2023-04-06T02:19:22;100010.59;;;9.80;49.89
59487;BME280;45298;54.918;73.504;2023-04-06T02:21:51;99979.38;;;10.00;49.33
59487;BME280;45298;54.918;73.504;2023-04-06T02:24:20;99998.56;;;10.48;48.19
59487;BME280;45298;54.918;73.504;2023-04-06T02:26:49;99985.47;;;10.60;48.02
59487;BME280;45298;54.918;73.504;2023-04-06T02:29:18;99991.13;;;10.82;47.17
59487;BME280;45298;54.918;73.504;2023-04-06T02:31:47;99975.25;;;10.95;46.84
59487;BME280;45298;54.918;73.504;2023-04-06T02:34:16;99981.34;;;11.10;45.94
59487;BME280;45298;54.918;73.504;2023-04-06T02:36:49;99990.91;;;11.40;45.66
59487;BME280;45298;54.918;73.504;2023-04-06T02:39:19;99984.13;;;11.49;45.78
59487;BME280;45298;54.918;73.504;2023-04-06T02:41:49;99985.44;;;11.56;45.38
59487;BME280;45298;54.918;73.504;2023-04-06T02:44:21;99979.25;;;11.56;45.23
59487;BME280;45298;54.918;73.504;2023-04-06T02:46:51;99987.22;;;11.56;44.93
59487;BME280;45298;54.918;73.504;2023-04-06T02:49:21;99979.75;;;11.35;45.25
59487;BME280;45298;54.918;73.504;2023-04-06T02:51:54;99978.47;;;11.41;45.68
59487;BME280;45298;54.918;73.504;2023-04-06T02:54:27;99972.16;;;11.29;45.91
59487;BME280;45298;54.918;73.504;2023-04-06T02:56:56;99960.53;;;11.31;45.36
59487;BME280;45298;54.918;73.504;2023-04-06T02:59:34;99967.81;;;11.28;45.52
59487;BME280;45298;54.918;73.504;2023-04-06T03:02:29;99939.44;;;11.15;46.76
59487;BME280;45298;54.918;73.504;2023-04-06T03:05:06;99939.25;;;11.18;46.11
59487;BME280;45298;54.918;73.504;2023-04-06T03:07:42;99940.66;;;10.97;45.93
59487;BME280;45298;54.918;73.504;2023-04-06T03:10:22;99935.22;;;10.71;46.18
59487;BME280;45298;54.918;73.504;2023-04-06T03:12:51;99918.78;;;10.51;46.71
59487;BME280;45298;54.918;73.504;2023-04-06T03:15:23;99933.31;;;10.73;46.56
59487;BME280;45298;54.918;73.504;2023-04-06T03:18:07;99920.19;;;10.71;46.41
59487;BME280;45298;54.918;73.504;2023-04-06T03:20:43;99921.81;;;10.60;46.86
59487;BME280;45298;54.918;73.504;2023-04-06T03:23:13;99905.53;;;10.37;47.64
59487;BME280;45298;54.918;73.504;2023-04-06T03:25:44;99915.59;;;10.46;47.19
59487;BME280;45298;54.918;73.504;2023-04-06T03:28:16;99905.38;;;10.25;47.75
59487;BME280;45298;54.918;73.504;2023-04-06T03:30:51;99921.56;;;10.21;48.63
59487;BME280;45298;54.918;73.504;2023-04-06T03:33:43;99914.66;;;10.18;48.63
59487;BME280;45298;54.918;73.504;2023-04-06T03:36:19;99858.66;;;9.81;48.22
59487;BME280;45298;54.918;73.504;2023-04-06T03:38:48;99909.66;;;10.13;48.49
59487;BME280;45298;54.918;73.504;2023-04-06T03:41:19;99868.88;;;10.02;48.39
59487;BME280;45298;54.918;73.504;2023-04-06T03:43:56;99893.53;;;10.31;48.42
59487;BME280;45298;54.918;73.504;2023-04-06T03:46:25;99895.53;;;10.27;48.94
59487;BME280;45298;54.918;73.504;2023-04-06T03:48:57;99895.31;;;10.31;48.86
59487;BME280;45298;54.918;73.504;2023-04-06T03:51:27;99883.50;;;10.36;48.66
59487;BME280;45298;54.918;73.504;2023-04-06T03:53:56;99869.03;;;10.27;48.90
59487;BME280;45298;54.918;73.504;2023-04-06T03:56:25;99904.59;;;10.52;49.40
59487;BME280;45298;54.918;73.504;2023-04-06T03:58:54;99905.72;;;10.63;49.19
59487;BME280;45298;54.918;73.504;2023-04-06T04:01:23;99878.75;;;10.56;48.48
59487;BME280;45298;54.918;73.504;2023-04-06T04:03:53;99884.06;;;10.69;48.84
59487;BME280;45298;54.918;73.504;2023-04-06T04:06:22;99893.59;;;10.86;47.88
59487;BME280;45298;54.918;73.504;2023-04-06T04:08:51;99869.91;;;10.83;48.21
59487;BME280;45298;54.918;73.504;2023-04-06T04:11:20;99894.78;;;10.95;48.24
59487;BME280;45298;54.918;73.504;2023-04-06T04:13:55;99901.59;;;10.99;48.23
59487;BME280;45298;54.918;73.504;2023-04-06T04:16:24;99773.19;;;10.34;48.40
59487;BME280;45298;54.918;73.504;2023-04-06T04:18:53;99877.88;;;11.23;47.96
59487;BME280;45298;54.918;73.504;2023-04-06T04:21:23;99891.91;;;11.38;47.06
59487;BME280;45298;54.918;73.504;2023-04-06T04:23:52;99853.66;;;11.28;46.65
59487;BME280;45298;54.918;73.504;2023-04-06T04:26:21;99876.19;;;11.35;47.33
59487;BME280;45298;54.918;73.504;2023-04-06T04:28:50;99868.97;;;11.37;47.04
59487;BME280;45298;54.918;73.504;2023-04-06T04:31:22;99794.09;;;11.06;46.80
59487;BME280;45298;54.918;73.504;2023-04-06T04:33:57;99836.69;;;11.43;47.61
59487;BME280;45298;54.918;73.504;2023-04-06T04:36:30;99848.34;;;11.54;46.78
59487;BME280;45298;54.918;73.504;2023-04-06T04:39:02;99863.75;;;11.74;46.75
59487;BME280;45298;54.918;73.504;2023-04-06T04:41:36;99853.56;;;11.68;47.39
59487;BME280;45298;54.918;73.504;2023-04-06T04:44:08;99864.72;;;11.86;47.99
59487;BME280;45298;54.918;73.504;2023-04-06T04:46:38;99854.72;;;11.90;47.79
59487;BME280;45298;54.918;73.504;2023-04-06T04:49:08;99781.44;;;11.48;46.74
59487;BME280;45298;54.918;73.504;2023-04-06T04:51:38;99837.81;;;11.78;47.77
59487;BME280;45298;54.918;73.504;2023-04-06T04:54:20;99830.94;;;11.75;47.70
59487;BME280;45298;54.918;73.504;2023-04-06T04:56:49;99823.28;;;11.71;46.24
59487;BME280;45298;54.918;73.504;2023-04-06T04:59:24;99829.75;;;11.79;46.67
59487;BME280;45298;54.918;73.504;2023-04-06T05:01:59;99844.06;;;11.90;47.72
59487;BME280;45298;54.918;73.504;2023-04-06T05:04:38;99823.78;;;11.89;46.45
59487;BME280;45298;54.918;73.504;2023-04-06T05:07:11;99768.47;;;11.57;47.33
59487;BME280;45298;54.918;73.504;2023-04-06T05:09:41;99811.97;;;11.93;48.10
59487;BME280;45298;54.918;73.504;2023-04-06T05:12:11;99839.38;;;12.19;48.69
59487;BME280;45298;54.918;73.504;2023-04-06T05:14:50;99809.63;;;12.14;48.67
59487;BME280;45298;54.918;73.504;2023-04-06T05:17:21;99808.53;;;12.17;47.94
59487;BME280;45298;54.918;73.504;2023-04-06T05:19:50;99804.47;;;12.24;47.13
59487;BME280;45298;54.918;73.504;2023-04-06T05:22:23;99790.72;;;12.30;46.33
59487;BME280;45298;54.918;73.504;2023-04-06T05:25:03;99810.31;;;12.53;47.09
59487;BME280;45298;54.918;73.504;2023-04-06T05:27:32;99736.75;;;12.17;45.47
59487;BME280;45298;54.918;73.504;2023-04-06T05:30:07;99783.63;;;12.66;45.95
59487;BME280;45298;54.918;73.504;2023-04-06T05:32:42;99774.69;;;12.67;45.72
59487;BME280;45298;54.918;73.504;2023-04-06T05:35:13;99771.78;;;12.70;46.93
59487;BME280;45298;54.918;73.504;2023-04-06T05:37:46;99787.31;;;12.88;47.01
59487;BME280;45298;54.918;73.504;2023-04-06T05:40:16;99791.59;;;12.91;47.24
59487;BME280;45298;54.918;73.504;2023-04-06T05:42:45;99789.03;;;12.89;46.30
59487;BME280;45298;54.918;73.504;2023-04-06T05:45:15;99774.28;;;12.96;47.28
59487;BME280;45298;54.918;73.504;2023-04-06T05:47:51;99794.56;;;13.22;46.93
59487;BME280;45298;54.918;73.504;2023-04-06T05:50:27;99766.59;;;13.16;45.11
59487;BME280;45298;54.918;73.504;2023-04-06T05:52:57;99756.44;;;13.21;45.25
59487;BME280;45298;54.918;73.504;2023-04-06T05:55:31;99777.75;;;13.44;45.11
59487;BME280;45298;54.918;73.504;2023-04-06T05:58:14;99773.66;;;13.51;46.65
59487;BME280;45298;54.918;73.504;2023-04-06T06:00:46;99761.69;;;13.45;46.55
59487;BME280;45298;54.918;73.504;2023-04-06T06:03:18;99754.03;;;13.52;46.25
59487;BME280;45298;54.918;73.504;2023-04-06T06:05:51;99746.78;;;13.54;45.99
59487;BME280;45298;54.918;73.504;2023-04-06T06:08:29;99742.88;;;13.70;47.01
59487;BME280;45298;54.918;73.504;2023-04-06T06:11:01;99768.66;;;14.03;47.07
59487;BME280;45298;54.918;73.504;2023-04-06T06:13:30;99754.34;;;14.04;45.41
59487;BME280;45298;54.918;73.504;2023-04-06T06:16:00;99750.81;;;14.15;45.25
59487;BME280;45298;54.918;73.504;2023-04-06T06:18:36;99765.31;;;14.23;45.69
59487;BME280;45298;54.918;73.504;2023-04-06T06:21:07;99748.63;;;14.20;44.77
59487;BME280;45298;54.918;73.504;2023-04-06T06:23:38;99688.31;;;13.97;45.27
59487;BME280;45298;54.918;73.504;2023-04-06T06:26:07;99698.22;;;14.06;45.60
59487;BME280;45298;54.918;73.504;2023-04-06T06:28:36;99740.69;;;14.30;45.13
59487;BME280;45298;54.918;73.504;2023-04-06T06:31:04;99749.13;;;14.47;45.85
59487;BME280;45298;54.918;73.504;2023-04-06T06:33:33;99748.66;;;14.42;46.09
59487;BME280;45298;54.918;73.504;2023-04-06T06:36:02;99750.84;;;14.36;45.54
59487;BME280;45298;54.918;73.504;2023-04-06T06:38:31;99736.91;;;14.33;45.17
59487;BME280;45298;54.918;73.504;2023-04-06T06:41:00;99742.41;;;14.53;45.45
59487;BME280;45298;54.918;73.504;2023-04-06T06:43:32;99680.69;;;14.25;45.56
59487;BME280;45298;54.918;73.504;2023-04-06T06:46:06;99733.38;;;14.65;44.71
59487;BME280;45298;54.918;73.504;2023-04-06T06:48:35;99731.53;;;14.77;45.04
59487;BME280;45298;54.918;73.504;2023-04-06T06:51:04;99734.25;;;14.87;45.26
59487;BME280;45298;54.918;73.504;2023-04-06T06:53:33;99698.19;;;14.71;45.06
59487;BME280;45298;54.918;73.504;2023-04-06T06:56:02;99638.47;;;14.51;44.77
59487;BME280;45298;54.918;73.504;2023-04-06T06:58:31;99725.38;;;15.07;43.40
59487;BME280;45298;54.918;73.504;2023-04-06T07:01:00;99696.97;;;15.06;43.36
59487;BME280;45298;54.918;73.504;2023-04-06T07:03:30;99711.34;;;15.15;43.57
59487;BME280;45298;54.918;73.504;2023-04-06T07:05:59;99735.38;;;15.36;43.23
59487;BME280;45298;54.918;73.504;2023-04-06T07:08:28;99711.63;;;15.43;43.44
59487;BME280;45298;54.918;73.504;2023-04-06T07:10:57;99708.84;;;15.54;44.07
59487;BME280;45298;54.918;73.504;2023-04-06T07:13:26;99695.66;;;15.63;44.91
59487;BME280;45298;54.918;73.504;2023-04-06T07:15:57;99687.94;;;15.69;43.46
59487;BME280;45298;54.918;73.504;2023-04-06T07:18:27;99697.00;;;15.88;43.84
59487;BME280;45298;54.918;73.504;2023-04-06T07:20:58;99679.81;;;15.91;42.73
59487;BME280;45298;54.918;73.504;2023-04-06T07:23:27;99677.75;;;15.94;42.61
59487;BME280;45298;54.918;73.504;2023-04-06T07:25:55;99679.44;;;16.05;41.80
59487;BME280;45298;54.918;73.504;2023-04-06T07:28:24;99674.22;;;16.13;43.08
59487;BME280;45298;54.918;73.504;2023-04-06T07:30:54;99675.34;;;16.21;42.91
59487;BME280;45298;54.918;73.504;2023-04-06T07:33:23;99680.69;;;16.21;41.07
59487;BME280;45298;54.918;73.504;2023-04-06T07:35:52;99661.09;;;16.10;41.56
59487;BME280;45298;54.918;73.504;2023-04-06T07:38:21;99679.00;;;16.10;42.14
59487;BME280;45298;54.918;73.504;2023-04-06T07:40:51;99663.78;;;16.00;42.69
59487;BME280;45298;54.918;73.504;2023-04-06T07:43:19;99674.22;;;16.23;42.88
59487;BME280;45298;54.918;73.504;2023-04-06T07:45:48;99614.38;;;15.95;42.86
59487;BME280;45298;54.918;73.504;2023-04-06T07:48:17;99667.44;;;16.39;43.23
59487;BME280;45298;54.918;73.504;2023-04-06T07:50:46;99642.09;;;16.23;41.55
59487;BME280;45298;54.918;73.504;2023-04-06T07:53:15;99657.59;;;16.29;41.29
59487;BME280;45298;54.918;73.504;2023-04-06T07:55:46;99673.22;;;16.44;41.44
59487;BME280;45298;54.918;73.504;2023-04-06T07:58:14;99652.78;;;16.33;41.60
59487;BME280;45298;54.918;73.504;2023-04-06T08:00:43;99665.88;;;16.46;40.93
59487;BME280;45298;54.918;73.504;2023-04-06T08:03:12;99651.38;;;16.39;40.70
59487;BME280;45298;54.918;73.504;2023-04-06T08:05:42;99670.41;;;16.45;40.53
59487;BME280;45298;54.918;73.504;2023-04-06T08:08:13;99662.06;;;16.49;39.80
59487;BME280;45298;54.918;73.504;2023-04-06T08:10:42;99632.53;;;16.30;39.12
59487;BME280;45298;54.918;73.504;2023-04-06T08:13:11;99635.47;;;16.27;37.94
59487;BME280;45298;54.918;73.504;2023-04-06T08:15:40;99592.44;;;15.91;37.13
59487;BME280;45298;54.918;73.504;2023-04-06T08:18:09;99642.97;;;16.14;35.82
59487;BME280;45298;54.918;73.504;2023-04-06T08:20:39;99627.19;;;16.01;36.03
59487;BME280;45298;54.918;73.504;2023-04-06T08:23:08;99640.00;;;16.17;36.85
59487;BME280;45298;54.918;73.504;2023-04-06T08:25:37;99617.03;;;16.24;38.05
59487;BME280;45298;54.918;73.504;2023-04-06T08:28:06;99624.22;;;16.34;36.82
59487;BME280;45298;54.918;73.504;2023-04-06T08:30:40;99621.25;;;16.46;37.44
59487;BME280;45298;54.918;73.504;2023-04-06T08:33:09;99627.09;;;16.70;37.53
59487;BME280;45298;54.918;73.504;2023-04-06T08:35:38;99615.00;;;16.56;36.79
59487;BME280;45298;54.918;73.504;2023-04-06T08:38:07;99623.44;;;16.71;35.92
59487;BME280;45298;54.918;73.504;2023-04-06T08:40:40;99614.00;;;16.67;35.91
59487;BME280;45298;54.918;73.504;2023-04-06T08:43:13;99598.47;;;16.70;37.38
59487;BME280;45298;54.918;73.504;2023-04-06T08:45:42;99600.28;;;16.80;37.51
59487;BME280;45298;54.918;73.504;2023-04-06T08:48:11;99603.06;;;16.88;37.21
59487;BME280;45298;54.918;73.504;2023-04-06T08:50:41;99607.44;;;16.89;37.85
59487;BME280;45298;54.918;73.504;2023-04-06T08:53:11;99585.75;;;16.82;37.48
59487;BME280;45298;54.918;73.504;2023-04-06T08:55:42;99577.72;;;16.82;37.95
59487;BME280;45298;54.918;73.504;2023-04-06T08:58:12;99515.72;;;16.49;38.14
59487;BME280;45298;54.918;73.504;2023-04-06T09:00:58;99569.44;;;16.75;37.90
59487;BME280;45298;54.918;73.504;2023-04-06T09:03:28;99565.59;;;16.78;38.00
59487;BME280;45298;54.918;73.504;2023-04-06T09:06:00;99551.25;;;16.69;38.17
59487;BME280;45298;54.918;73.504;2023-04-06T09:08:29;99570.09;;;16.87;37.99
59487;BME280;45298;54.918;73.504;2023-04-06T09:10:58;99551.53;;;16.76;38.07
59487;BME280;45298;54.918;73.504;2023-04-06T09:13:27;99536.59;;;16.73;38.51
59487;BME280;45298;54.918;73.504;2023-04-06T09:16:00;99545.28;;;16.85;37.47
59487;BME280;45298;54.918;73.504;2023-04-06T09:18:30;99542.06;;;16.82;36.76
59487;BME280;45298;54.918;73.504;2023-04-06T09:21:05;99548.25;;;16.82;37.46
59487;BME280;45298;54.918;73.504;2023-04-06T09:23:34;99551.38;;;16.77;37.14
59487;BME280;45298;54.918;73.504;2023-04-06T09:26:29;99556.59;;;16.79;38.50
59487;BME280;45298;54.918;73.504;2023-04-06T09:28:58;99544.78;;;16.72;39.27
59487;BME280;45298;54.918;73.504;2023-04-06T09:31:32;99532.44;;;16.61;38.89
59487;BME280;45298;54.918;73.504;2023-04-06T09:34:01;99555.59;;;16.80;38.61
59487;BME280;45298;54.918;73.504;2023-04-06T09:36:34;99531.56;;;16.60;39.01
59487;BME280;45298;54.918;73.504;2023-04-06T09:39:04;99504.34;;;16.37;38.95
59487;BME280;45298;54.918;73.504;2023-04-06T09:41:35;99530.06;;;16.48;39.28
59487;BME280;45298;54.918;73.504;2023-04-06T09:44:09;99539.22;;;16.55;39.29
59487;BME280;45298;54.918;73.504;2023-04-06T09:46:40;99534.56;;;16.47;40.02
59487;BME280;45298;54.918;73.504;2023-04-06T09:49:31;99512.31;;;16.47;40.04
59487;BME280;45298;54.918;73.504;2023-04-06T09:52:03;99533.97;;;16.64;40.94
59487;BME280;45298;54.918;73.504;2023-04-06T09:54:34;99490.91;;;16.47;41.64
59487;BME280;45298;54.918;73.504;2023-04-06T09:57:25;99541.00;;;16.65;39.48
59487;BME280;45298;54.918;73.504;2023-04-06T10:00:06;99509.28;;;16.32;40.33
59487;BME280;45298;54.918;73.504;2023-04-06T10:05:55;99503.81;;;16.24;40.44
59487;BME280;45298;54.918;73.504;2023-04-06T10:08:28;99503.25;;;16.20;40.34
59487;BME280;45298;54.918;73.504;2023-04-06T10:10:59;99520.19;;;16.11;41.50
59487;BME280;45298;54.918;73.504;2023-04-06T10:13:29;99528.94;;;16.03;41.42
59487;BME280;45298;54.918;73.504;2023-04-06T10:15:59;99509.50;;;15.81;41.91
59487;BME280;45298;54.918;73.504;2023-04-06T10:18:30;99523.69;;;15.82;43.17
59487;BME280;45298;54.918;73.504;2023-04-06T10:21:07;99524.69;;;15.81;43.05
59487;BME280;45298;54.918;73.504;2023-04-06T10:23:45;99511.63;;;15.78;44.10
59487;BME280;45298;54.918;73.504;2023-04-06T10:26:19;99518.22;;;15.83;44.21
59487;BME280;45298;54.918;73.504;2023-04-06T10:28:51;99530.06;;;15.91;43.73
59487;BME280;45298;54.918;73.504;2023-04-06T10:31:27;99497.13;;;15.70;43.06
59487;BME280;45298;54.918;73.504;2023-04-06T10:33:59;99497.69;;;15.74;43.17
59487;BME280;45298;54.918;73.504;2023-04-06T10:36:33;99484.19;;;15.56;43.21
59487;BME280;45298;54.918;73.504;2023-04-06T10:39:04;99475.75;;;15.41;43.77
59487;BME280;45298;54.918;73.504;2023-04-06T10:41:44;99389.13;;;14.85;44.64
59487;BME280;45298;54.918;73.504;2023-04-06T10:44:20;99479.69;;;15.37;44.43
59487;BME280;45298;54.918;73.504;2023-04-06T10:46:58;99456.88;;;15.23;44.90
59487;BME280;45298;54.918;73.504;2023-04-06T10:49:30;99485.31;;;15.44;44.70
59487;BME280;45298;54.918;73.504;2023-04-06T10:51:59;99476.31;;;15.45;45.30
59487;BME280;45298;54.918;73.504;2023-04-06T10:54:28;99470.69;;;15.48;45.84
59487;BME280;45298;54.918;73.504;2023-04-06T10:57:00;99452.84;;;15.38;45.67
59487;BME280;45298;54.918;73.504;2023-04-06T10:59:29;99452.97;;;15.47;46.36
59487;BME280;45298;54.918;73.504;2023-04-06T11:01:58;99455.78;;;15.55;46.64
59487;BME280;45298;54.918;73.504;2023-04-06T11:04:27;99475.47;;;15.74;46.50
59487;BME280;45298;54.918;73.504;2023-04-06T11:06:57;99467.16;;;15.77;46.32
59487;BME280;45298;54.918;73.504;2023-04-06T11:09:27;99439.75;;;15.55;46.58
59487;BME280;45298;54.918;73.504;2023-04-06T11:11:57;99465.59;;;15.74;47.03
59487;BME280;45298;54.918;73.504;2023-04-06T11:14:26;99445.19;;;15.63;47.23
59487;BME280;45298;54.918;73.504;2023-04-06T11:16:55;99451.69;;;15.70;47.45
59487;BME280;45298;54.918;73.504;2023-04-06T11:19:25;99458.28;;;15.76;47.97
59487;BME280;45298;54.918;73.504;2023-04-06T11:21:54;99438.75;;;15.66;47.76
59487;BME280;45298;54.918;73.504;2023-04-06T11:24:26;99432.25;;;15.68;47.06
59487;BME280;45298;54.918;73.504;2023-04-06T11:26:58;99376.63;;;15.34;47.33
59487;BME280;45298;54.918;73.504;2023-04-06T11:29:30;99439.56;;;15.66;47.50
59487;BME280;45298;54.918;73.504;2023-04-06T11:32:03;99431.44;;;15.58;47.73
59487;BME280;45298;54.918;73.504;2023-04-06T11:34:38;99417.25;;;15.48;47.64
59487;BME280;45298;54.918;73.504;2023-04-06T11:37:09;99427.94;;;15.48;47.66
59487;BME280;45298;54.918;73.504;2023-04-06T11:39:40;99424.81;;;15.52;47.70
59487;BME280;45298;54.918;73.504;2023-04-06T11:42:09;99426.50;;;15.53;47.33
59487;BME280;45298;54.918;73.504;2023-04-06T11:44:49;99421.75;;;15.47;47.72
59487;BME280;45298;54.918;73.504;2023-04-06T11:47:19;99427.66;;;15.51;47.32
59487;BME280;45298;54.918;73.504;2023-04-06T11:49:50;99431.47;;;15.48;47.49
59487;BME280;45298;54.918;73.504;2023-04-06T11:52:24;99433.00;;;15.41;48.25
59487;BME280;45298;54.918;73.504;2023-04-06T11:54:54;99393.63;;;15.14;48.08
59487;BME280;45298;54.918;73.504;2023-04-06T11:57:25;99378.03;;;14.99;48.33
59487;BME280;45298;54.918;73.504;2023-04-06T11:59:55;99383.09;;;15.02;49.03
59487;BME280;45298;54.918;73.504;2023-04-06T12:02:24;99400.94;;;15.11;49.25
59487;BME280;45298;54.918;73.504;2023-04-06T12:04:53;99412.78;;;15.19;49.39
59487;BME280;45298;54.918;73.504;2023-04-06T12:07:22;99408.41;;;15.18;48.97
59487;BME280;45298;54.918;73.504;2023-04-06T12:09:51;99396.88;;;15.07;48.93
59487;BME280;45298;54.918;73.504;2023-04-06T12:12:20;99389.13;;;15.04;49.54
59487;BME280;45298;54.918;73.504;2023-04-06T12:14:49;99347.97;;;14.77;49.58
59487;BME280;45298;54.918;73.504;2023-04-06T12:17:20;99406.72;;;15.17;49.69
59487;BME280;45298;54.918;73.504;2023-04-06T12:19:49;99383.38;;;14.99;50.03
59487;BME280;45298;54.918;73.504;2023-04-06T12:22:18;99396.59;;;15.01;50.00
59487;BME280;45298;54.918;73.504;2023-04-06T12:24:47;99379.31;;;14.85;50.30
59487;BME280;45298;54.918;73.504;2023-04-06T12:27:16;99369.59;;;14.74;50.63
59487;BME280;45298;54.918;73.504;2023-04-06T12:29:45;99403.75;;;14.80;50.80
59487;BME280;45298;54.918;73.504;2023-04-06T12:32:14;99388.81;;;14.68;50.97
59487;BME280;45298;54.918;73.504;2023-04-06T12:34:44;99371.63;;;14.51;50.72
59487;BME280;45298;54.918;73.504;2023-04-06T12:37:12;99360.66;;;14.44;51.11
59487;BME280;45298;54.918;73.504;2023-04-06T12:39:42;99374.41;;;14.40;51.38
59487;BME280;45298;54.918;73.504;2023-04-06T12:42:13;99375.91;;;14.32;51.77
59487;BME280;45298;54.918;73.504;2023-04-06T12:44:42;99370.84;;;14.19;52.41
59487;BME280;45298;54.918;73.504;2023-04-06T12:47:12;99373.34;;;14.11;52.47
59487;BME280;45298;54.918;73.504;2023-04-06T12:49:41;99330.97;;;13.77;52.55
59487;BME280;45298;54.918;73.504;2023-04-06T12:52:11;99357.06;;;13.83;52.61
59487;BME280;45298;54.918;73.504;2023-04-06T12:54:41;99364.09;;;13.84;52.98
59487;BME280;45298;54.918;73.504;2023-04-06T12:57:11;99365.63;;;13.77;53.39
59487;BME280;45298;54.918;73.504;2023-04-06T12:59:45;99370.19;;;13.65;53.90
59487;BME280;45298;54.918;73.504;2023-04-06T13:02:14;99353.22;;;13.45;53.82
59487;BME280;45298;54.918;73.504;2023-04-06T13:04:44;99347.94;;;13.34;54.44
59487;BME280;45298;54.918;73.504;2023-04-06T13:07:13;99279.94;;;12.87;54.94
59487;BME280;45298;54.918;73.504;2023-04-06T13:09:42;99353.72;;;13.18;54.96
59487;BME280;45298;54.918;73.504;2023-04-06T13:12:11;99267.38;;;12.57;55.12
59487;BME280;45298;54.918;73.504;2023-04-06T13:14:40;99323.06;;;12.81;55.84
59487;BME280;45298;54.918;73.504;2023-04-06T13:17:09;99327.31;;;12.72;56.25